Four Corners Regional Airport
KFMN : now visible

Airfield :











YOU CAN JOIN US ON...

 
LOGIN :

Register | Disclaimer

   EN    FR    IT 

 









Legend :    VFR   Marginal VFR   IFR   Intensive IFR   Very Intensive IFR
Visi :
Ceiling :
>= 8 km
>= 3000ft
5 to 8 km
1000 to 3000 ft
1500m to 5 km
500 to 1000 ft
800 to 1500m
200 to 500 ft
< 800m
< 200 ft
Symbols :   Thunderstorms  Fog  Heavy snow  Heavy precipitations  Wind > 20 kt






- Airport Elevation : 5506 ft


KFMN - Four Corners Regional

CURRENT METAR :
  • 250353Z AUTO 00000KT 10SM CLR 27/04 A3006 RMK AO2 SLP102 T02720044

EXPIRED METARs :
  • 250253Z 26008KT 10SM CLR 29/04 A3004 RMK AO2 SLP095 T02940044 53002
  • 250153Z 25009KT 10SM CLR 32/04 A3003 RMK AO2 SLP091 T03170044
  • 250053Z 26009KT 10SM CLR 33/05 A3002 RMK AO2 SLP090 T03330050
  • 242353Z 24014KT 10SM CLR 34/05 A3003 RMK AO2 SLP092 T03390050 10344 20294 56020

TAF KFMN
Valid from the 25 at 00:00 until the 26 at 00:00 UTC


242359Z 2500/2524 25012G20KT P6SM SKC
FM250400 VRB04KT P6SM SCT200
FM250900 06006KT P6SM SKC
FM252000 27007KT P6SM SCT150
KZDV FIR / North America



MET'MAP, your aeronautical weather chart ! - Copyright ORBIFLY December 2007 - Disclaimer

ORBIFLY MET'MAP TEAM :

Programming & Development : Alexandra Zaïnal
Original concept : Baudouin d'Aumeries
Technical & hardware support : Manuel Goepfert
Assistance : Marc-Olivier Méhu




SOURCES & CREDITS :

   NOAA       Earth
Advisory